Time;durP1;ratioP1;P1;durP2;ratioP2;P2;SDS_P1;SDS_P2;PMS_P1;PMS_P2;Temp;Humidity;BMP_temperature;BMP_pressure;BME280_temperature;BME280_humidity;BME280_pressure;Samples;Min_cycle;Max_cycle;Signal;HPM_P1;HPM_P2
2023/12/20 00:00:26;;;;;;;;;;;;;;;;;;5067932;28;19947;-82
2023/12/20 00:02:53;;;;;;;;;;;;;;;;;;5062662;28;19931;-83
2023/12/20 00:05:19;;;;;;;;;;;;;;;;;;5065789;28;19925;-83
2023/12/20 00:07:46;;;;;;;;;;;;;;;;;;5062724;28;20468;-82
2023/12/20 00:10:13;;;;;;;;;;;;;;;;;;5067765;28;20336;-85
2023/12/20 00:12:40;;;;;;;;;;;;;;;;;;5064800;28;19979;-83
2023/12/20 00:15:07;;;;;;;;;;;;;;;;;;5046348;28;19924;-84
2023/12/20 00:17:33;;;;;;;;;;;;;;;;;;5070241;28;20019;-85
2023/12/20 00:20:00;;;;;;;;;;;;;;;;;;5054909;28;19967;-84
2023/12/20 00:22:29;;;;;;;;;;;;;;;;;;5056037;28;20443;-83
2023/12/20 00:24:56;;;;;;;;;;;;;;;;;;5060145;28;19924;-83
2023/12/20 00:27:23;;;;;;;;;;;;;;;;;;5065468;28;20023;-84
2023/12/20 00:29:50;;;;;;;;;;;;;;;;;;5066434;28;19924;-82
2023/12/20 00:32:16;;;;;;;;;;;;;;;;;;5061467;28;20301;-82
2023/12/20 00:34:43;;;;;;;;;;;;;;;;;;5060399;28;19925;-82
2023/12/20 00:37:09;;;;;;;;;;;;;;;;;;5071007;28;19954;-81
2023/12/20 00:39:36;;;;;;;;;;;;;;;;;;5062435;28;19928;-82
2023/12/20 00:42:02;;;;;;;;;;;;;;;;;;5070353;28;19929;-82
2023/12/20 00:44:29;;;;;;;;;;;;;;;;;;5066721;28;19959;-81
2023/12/20 00:46:55;;;;;;;;;;;;;;;;;;5071301;28;19998;-81
2023/12/20 00:49:22;;;;;;;;;;;;;;;;;;5069456;28;19980;-81
2023/12/20 00:51:50;;;;;;;;;;;;;;;;;;5059113;28;19924;-82
2023/12/20 00:54:17;;;;;;;;;;;;;;;;;;5058085;28;19925;-81
2023/12/20 00:56:43;;;;;;;;;;;;;;;;;;5053833;28;19967;-83
2023/12/20 00:59:09;;;;;;;;;;;;;;;;;;5065299;28;19986;-81
2023/12/20 01:01:36;;;;;;;;;;;;;;;;;;5052825;28;19974;-82
2023/12/20 01:04:02;;;;;;;;;;;;;;;;;;5054303;28;20385;-82
2023/12/20 01:06:29;;;;;;;;;;;;;;;;;;5063005;28;19924;-82
2023/12/20 01:08:55;;;;;;;;;;;;;;;;;;5069189;28;19960;-82
2023/12/20 01:11:22;;;;;;;;;;;;;;;;;;5043844;28;20329;-82
2023/12/20 01:13:48;;;;;;;;;;;;;;;;;;5067757;28;19953;-82
2023/12/20 01:16:14;;;;;;;;;;;;;;;;;;5062354;28;19929;-82
2023/12/20 01:18:41;;;;;;;;;;;;;;;;;;5063421;28;19932;-82
2023/12/20 01:21:07;;;;;;;;;;;;;;;;;;5068384;28;19924;-81
2023/12/20 01:23:34;;;;;;;;;;;;;;;;;;5061785;28;20396;-83
2023/12/20 01:26:00;;;;;;;;;;;;;;;;;;5061627;28;19974;-81
2023/12/20 01:28:27;;;;;;;;;;;;;;;;;;5051891;28;19925;-82
2023/12/20 01:30:53;;;;;;;;;;;;;;;;;;5063881;28;19924;-82
2023/12/20 01:33:20;;;;;;;;;;;;;;;;;;5059149;28;19924;-81
2023/12/20 01:35:47;;;;;;;;;;;;;;;;;;5068432;28;19929;-81
2023/12/20 01:38:13;;;;;;;;;;;;;;;;;;5069372;28;20420;-82
2023/12/20 01:40:39;;;;;;;;;;;;;;;;;;5067625;28;19928;-81
2023/12/20 01:43:06;;;;;;;;;;;;;;;;;;5060069;28;19925;-81
2023/12/20 01:45:32;;;;;;;;;;;;;;;;;;5062476;28;20262;-80
2023/12/20 01:47:59;;;;;;;;;;;;;;;;;;5060873;28;19978;-82
2023/12/20 01:50:25;;;;;;;;;;;;;;;;;;5070504;28;19963;-80
2023/12/20 01:52:52;;;;;;;;;;;;;;;;;;5062692;28;19924;-81
2023/12/20 01:55:18;;;;;;;;;;;;;;;;;;5064556;28;20380;-80
2023/12/20 01:57:45;;;;;;;;;;;;;;;;;;5065253;28;20340;-80
2023/12/20 02:00:12;;;;;;;;;;;;;;;;;;5065087;28;19924;-80
2023/12/20 02:02:38;;;;;;;;;;;;;;;;;;5064402;28;19960;-82
2023/12/20 02:05:05;;;;;;;;;;;;;;;;;;5055686;28;19972;-81
2023/12/20 02:07:31;;;;;;;;;;;;;;;;;;5067549;28;19928;-80
2023/12/20 02:09:58;;;;;;;;;;;;;;;;;;5062219;28;19924;-80
2023/12/20 02:12:24;;;;;;;;;;;;;;;;;;5071391;28;20331;-81
2023/12/20 02:14:51;;;;;;;;;;;;;;;;;;5052473;28;19931;-81
2023/12/20 02:17:17;;;;;;;;;;;;;;;;;;5053589;28;19929;-81
2023/12/20 02:19:44;;;;;;;;;;;;;;;;;;5075845;28;19971;-80
2023/12/20 02:22:10;;;;;;;;;;;;;;;;;;5068568;28;19932;-80
2023/12/20 02:24:37;;;;;;;;;;;;;;;;;;5056044;28;20011;-80
2023/12/20 02:27:03;;;;;;;;;;;;;;;;;;5065326;28;20292;-81
2023/12/20 02:29:30;;;;;;;;;;;;;;;;;;5057398;28;20384;-80
2023/12/20 02:31:56;;;;;;;;;;;;;;;;;;5068341;28;19974;-83
2023/12/20 02:34:22;;;;;;;;;;;;;;;;;;5068632;28;19935;-80
2023/12/20 02:36:49;;;;;;;;;;;;;;;;;;5060744;28;20011;-81
2023/12/20 02:39:15;;;;;;;;;;;;;;;;;;5071275;28;19932;-83
2023/12/20 02:41:42;;;;;;;;;;;;;;;;;;5066578;28;19928;-82
2023/12/20 02:44:08;;;;;;;;;;;;;;;;;;5069012;28;19928;-82
2023/12/20 02:46:35;;;;;;;;;;;;;;;;;;5065372;28;19993;-82
2023/12/20 02:49:01;;;;;;;;;;;;;;;;;;5074333;28;19925;-82
2023/12/20 02:51:27;;;;;;;;;;;;;;;;;;5056406;28;19968;-82
2023/12/20 02:53:54;;;;;;;;;;;;;;;;;;5064228;28;20003;-82
2023/12/20 02:56:20;;;;;;;;;;;;;;;;;;5073860;28;19925;-81
2023/12/20 02:58:47;;;;;;;;;;;;;;;;;;5070303;28;19946;-82
2023/12/20 03:01:13;;;;;;;;;;;;;;;;;;5070969;28;19936;-83
2023/12/20 03:03:40;;;;;;;;;;;;;;;;;;5060724;28;19932;-82
2023/12/20 03:06:06;;;;;;;;;;;;;;;;;;5074316;28;19935;-81
2023/12/20 03:08:33;;;;;;;;;;;;;;;;;;5068757;28;20680;-83
2023/12/20 03:10:59;;;;;;;;;;;;;;;;;;5063869;28;19929;-82
2023/12/20 03:13:25;;;;;;;;;;;;;;;;;;5076288;28;19990;-83
2023/12/20 03:15:52;;;;;;;;;;;;;;;;;;5073238;28;19928;-83
2023/12/20 03:18:18;;;;;;;;;;;;;;;;;;5065153;28;19924;-82
2023/12/20 03:20:45;;;;;;;;;;;;;;;;;;5062811;28;20376;-82
2023/12/20 03:23:11;;;;;;;;;;;;;;;;;;5068255;28;19925;-82
2023/12/20 03:25:38;;;;;;;;;;;;;;;;;;5070953;28;19932;-82
2023/12/20 03:28:04;;;;;;;;;;;;;;;;;;5070644;28;20006;-82
2023/12/20 03:30:31;;;;;;;;;;;;;;;;;;5065364;28;19966;-83
2023/12/20 03:32:57;;;;;;;;;;;;;;;;;;5074416;28;20319;-82
2023/12/20 03:35:24;;;;;;;;;;;;;;;;;;5070969;28;20019;-82
2023/12/20 03:37:50;;;;;;;;;;;;;;;;;;5074747;28;19925;-82
2023/12/20 03:40:16;;;;;;;;;;;;;;;;;;5067346;28;19925;-83
2023/12/20 03:42:43;;;;;;;;;;;;;;;;;;5066729;28;19924;-82
2023/12/20 03:45:09;;;;;;;;;;;;;;;;;;5074968;28;19929;-82
2023/12/20 03:47:36;;;;;;;;;;;;;;;;;;5073721;28;19932;-82
2023/12/20 03:50:04;;;;;;;;;;;;;;;;;;5066898;28;20369;-83
2023/12/20 03:52:30;;;;;;;;;;;;;;;;;;5067665;28;19925;-81
2023/12/20 03:54:57;;;;;;;;;;;;;;;;;;5057535;28;20422;-83
2023/12/20 03:57:23;;;;;;;;;;;;;;;;;;5072728;28;19925;-81
2023/12/20 03:59:50;;;;;;;;;;;;;;;;;;5066129;28;20364;-82
2023/12/20 04:02:17;;;;;;;;;;;;;;;;;;5067450;28;19960;-83
2023/12/20 04:04:44;;;;;;;;;;;;;;;;;;5070127;28;20327;-82
2023/12/20 04:07:11;;;;;;;;;;;;;;;;;;5064598;28;19925;-82
2023/12/20 04:09:37;;;;;;;;;;;;;;;;;;5063815;28;19928;-81
2023/12/20 04:12:05;;;;;;;;;;;;;;;;;;5066660;28;19929;-81
2023/12/20 04:14:32;;;;;;;;;;;;;;;;;;5072841;28;20006;-83
2023/12/20 04:16:58;;;;;;;;;;;;;;;;;;5070393;28;19990;-82
2023/12/20 04:19:25;;;;;;;;;;;;;;;;;;5072460;28;20384;-80
2023/12/20 04:21:52;;;;;;;;;;;;;;;;;;5068663;28;19924;-81
2023/12/20 04:24:22;;;;;;;;;;;;;;;;;;5062470;28;19936;-82
2023/12/20 04:26:49;;;;;;;;;;;;;;;;;;5069543;28;19952;-82
2023/12/20 04:29:15;;;;;;;;;;;;;;;;;;5067755;28;20297;-83
2023/12/20 04:31:42;;;;;;;;;;;;;;;;;;5076233;28;20273;-82
2023/12/20 04:34:08;;;;;;;;;;;;;;;;;;5063104;28;20015;-82
2023/12/20 04:36:35;;;;;;;;;;;;;;;;;;5068605;28;19931;-80
2023/12/20 04:39:02;;;;;;;;;;;;;;;;;;5057822;28;19925;-81
2023/12/20 04:41:29;;;;;;;;;;;;;;;;;;5070176;28;19932;-81
2023/12/20 04:43:55;;;;;;;;;;;;;;;;;;5066938;28;19935;-81
2023/12/20 04:46:21;;;;;;;;;;;;;;;;;;5071109;28;19928;-80
2023/12/20 04:48:48;;;;;;;;;;;;;;;;;;5072436;28;19925;-80
2023/12/20 04:51:14;;;;;;;;;;;;;;;;;;5065311;28;19960;-80
2023/12/20 04:53:41;;;;;;;;;;;;;;;;;;5072292;28;20296;-81
2023/12/20 04:56:07;;;;;;;;;;;;;;;;;;5070468;28;20015;-82
2023/12/20 04:58:34;;;;;;;;;;;;;;;;;;5073116;28;19928;-81
2023/12/20 05:01:00;;;;;;;;;;;;;;;;;;5067784;28;19925;-80
2023/12/20 05:03:27;;;;;;;;;;;;;;;;;;5071075;28;19928;-80
2023/12/20 05:05:53;;;;;;;;;;;;;;;;;;5064923;28;19978;-81
2023/12/20 05:08:20;;;;;;;;;;;;;;;;;;5068998;28;19929;-80
2023/12/20 05:10:46;;;;;;;;;;;;;;;;;;5061549;28;19928;-81
2023/12/20 05:13:12;;;;;;;;;;;;;;;;;;5055531;28;20393;-81
2023/12/20 05:15:39;;;;;;;;;;;;;;;;;;5063546;28;19928;-80
2023/12/20 05:18:05;;;;;;;;;;;;;;;;;;5065331;28;19925;-81
2023/12/20 05:20:32;;;;;;;;;;;;;;;;;;5061447;28;19956;-81
2023/12/20 05:22:58;;;;;;;;;;;;;;;;;;5079546;28;19925;-80
2023/12/20 05:25:25;;;;;;;;;;;;;;;;;;5079933;28;19924;-80
2023/12/20 05:27:52;;;;;;;;;;;;;;;;;;5080181;28;19948;-81
2023/12/20 05:30:19;;;;;;;;;;;;;;;;;;5066315;28;19940;-82
2023/12/20 05:32:45;;;;;;;;;;;;;;;;;;5076400;28;19925;-81
2023/12/20 05:35:12;;;;;;;;;;;;;;;;;;5077401;28;19936;-82
2023/12/20 05:37:38;;;;;;;;;;;;;;;;;;5076919;28;19931;-82
2023/12/20 05:40:05;;;;;;;;;;;;;;;;;;5065255;28;20275;-82
2023/12/20 05:42:31;;;;;;;;;;;;;;;;;;5073846;28;19928;-81
2023/12/20 05:44:58;;;;;;;;;;;;;;;;;;5057143;28;19935;-81
2023/12/20 05:47:24;;;;;;;;;;;;;;;;;;5063967;28;20427;-81
2023/12/20 05:49:51;;;;;;;;;;;;;;;;;;5063139;28;19925;-81
2023/12/20 05:52:17;;;;;;;;;;;;;;;;;;5069108;28;20362;-81
2023/12/20 05:54:44;;;;;;;;;;;;;;;;;;5065641;28;19956;-80
2023/12/20 05:57:10;;;;;;;;;;;;;;;;;;5050360;28;19924;-80
2023/12/20 05:59:37;;;;;;;;;;;;;;;;;;5072750;28;19936;-80
2023/12/20 06:02:03;;;;;;;;;;;;;;;;;;5062713;28;19960;-82
2023/12/20 06:04:29;;;;;;;;;;;;;;;;;;5062832;28;20309;-81
2023/12/20 06:06:56;;;;;;;;;;;;;;;;;;5050489;28;20348;-80
2023/12/20 06:09:22;;;;;;;;;;;;;;;;;;5061475;28;19932;-79
2023/12/20 06:11:49;;;;;;;;;;;;;;;;;;5058027;28;19978;-80
2023/12/20 06:14:15;;;;;;;;;;;;;;;;;;5070072;28;20032;-80
2023/12/20 06:16:43;;;;;;;;;;;;;;;;;;5068498;28;19978;-80
2023/12/20 06:19:09;;;;;;;;;;;;;;;;;;5068330;28;19932;-80
2023/12/20 06:21:36;;;;;;;;;;;;;;;;;;5066983;28;19928;-81
2023/12/20 06:24:02;;;;;;;;;;;;;;;;;;5064114;28;19924;-80
2023/12/20 06:26:28;;;;;;;;;;;;;;;;;;5067496;28;20339;-80
2023/12/20 06:28:55;;;;;;;;;;;;;;;;;;5063537;28;19946;-80
2023/12/20 06:31:21;;;;;;;;;;;;;;;;;;5079044;28;19929;-80
2023/12/20 06:33:57;;;;;;;;;;;;;;;;;;5073776;28;19925;-82
2023/12/20 06:36:24;;;;;;;;;;;;;;;;;;5059680;28;19925;-83
2023/12/20 06:38:50;;;;;;;;;;;;;;;;;;5070441;28;19928;-81
2023/12/20 06:41:17;;;;;;;;;;;;;;;;;;5070007;28;19982;-81
2023/12/20 06:43:43;;;;;;;;;;;;;;;;;;5069952;28;20011;-81
2023/12/20 06:46:15;;;;;;;;;;;;;;;;;;5070595;28;19931;-81
2023/12/20 06:48:41;;;;;;;;;;;;;;;;;;5073939;28;19929;-81
2023/12/20 06:51:08;;;;;;;;;;;;;;;;;;5067528;28;20339;-81
2023/12/20 06:53:35;;;;;;;;;;;;;;;;;;5066940;28;20323;-81
2023/12/20 06:56:01;;;;;;;;;;;;;;;;;;5075479;28;20065;-81
2023/12/20 06:58:27;;;;;;;;;;;;;;;;;;5078868;28;19978;-81
2023/12/20 07:00:54;;;;;;;;;;;;;;;;;;5059203;28;19931;-82
2023/12/20 07:03:22;;;;;;;;;;;;;;;;;;5069262;28;19924;-81
2023/12/20 07:05:49;;;;;;;;;;;;;;;;;;5073159;28;19967;-81
2023/12/20 07:08:16;;;;;;;;;;;;;;;;;;5060296;28;20370;-80
2023/12/20 07:10:43;;;;;;;;;;;;;;;;;;5061231;28;19929;-79
2023/12/20 07:13:10;;;;;;;;;;;;;;;;;;5069132;28;20043;-80
2023/12/20 07:15:38;;;;;;;;;;;;;;;;;;5065170;28;20292;-81
2023/12/20 07:18:06;;;;;;;;;;;;;;;;;;5072597;28;19924;-79
2023/12/20 07:20:32;;;;;;;;;;;;;;;;;;5074896;28;19925;-80
2023/12/20 07:22:59;;;;;;;;;;;;;;;;;;5070662;28;20449;-78
2023/12/20 07:25:26;;;;;;;;;;;;;;;;;;5067963;28;20381;-80
2023/12/20 07:27:52;;;;;;;;;;;;;;;;;;5072934;28;19924;-79
2023/12/20 07:30:19;;;;;;;;;;;;;;;;;;5076424;28;19935;-81
2023/12/20 07:32:47;;;;;;;;;;;;;;;;;;5070446;28;19928;-80
2023/12/20 07:35:13;;;;;;;;;;;;;;;;;;5067427;28;19924;-80
2023/12/20 07:37:40;;;;;;;;;;;;;;;;;;5070505;28;20294;-80
2023/12/20 07:40:06;;;;;;;;;;;;;;;;;;5059040;28;19963;-81
2023/12/20 07:42:33;;;;;;;;;;;;;;;;;;5060971;28;19935;-80
2023/12/20 07:44:59;;;;;;;;;;;;;;;;;;5065127;28;19929;-79
2023/12/20 07:47:26;;;;;;;;;;;;;;;;;;5064114;28;19928;-82
2023/12/20 07:49:52;;;;;;;;;;;;;;;;;;5057391;28;20381;-80
2023/12/20 07:52:19;;;;;;;;;;;;;;;;;;5066653;28;19929;-80
2023/12/20 07:54:45;;;;;;;;;;;;;;;;;;5071956;28;19949;-80
2023/12/20 07:57:12;;;;;;;;;;;;;;;;;;5061673;28;19924;-80
2023/12/20 07:59:39;;;;;;;;;;;;;;;;;;5068144;28;20015;-81
2023/12/20 08:02:06;;;;;;;;;;;;;;;;;;5053019;28;19935;-79
2023/12/20 08:04:33;;;;;;;;;;;;;;;;;;5063045;28;19924;-79
2023/12/20 08:07:00;;;;;;;;;;;;;;;;;;5069521;28;19936;-81
2023/12/20 08:09:26;;;;;;;;;;;;;;;;;;5064858;28;20024;-78
2023/12/20 08:11:53;;;;;;;;;;;;;;;;;;5063118;28;20448;-79
2023/12/20 08:14:19;;;;;;;;;;;;;;;;;;5060844;28;19925;-78
2023/12/20 08:16:46;;;;;;;;;;;;;;;;;;5073193;28;20317;-81
2023/12/20 08:19:12;;;;;;;;;;;;;;;;;;5067096;28;19929;-79
2023/12/20 08:21:39;;;;;;;;;;;;;;;;;;5064814;28;19925;-80
2023/12/20 08:24:05;;;;;;;;;;;;;;;;;;5050395;28;19929;-80
2023/12/20 08:26:31;;;;;;;;;;;;;;;;;;5063865;28;19924;-79
2023/12/20 08:28:58;;;;;;;;;;;;;;;;;;5063042;28;19932;-80
2023/12/20 08:31:27;;;;;;;;;;;;;;;;;;5071696;28;20037;-78
2023/12/20 08:33:53;;;;;;;;;;;;;;;;;;5066909;28;20435;-76
2023/12/20 08:36:22;;;;;;;;;;;;;;;;;;5071692;28;19997;-80
2023/12/20 08:38:48;;;;;;;;;;;;;;;;;;5066249;28;20392;-81
2023/12/20 08:41:15;;;;;;;;;;;;;;;;;;5054993;28;20440;-81
2023/12/20 08:43:41;;;;;;;;;;;;;;;;;;5058372;28;19924;-79
2023/12/20 08:46:09;;;;;;;;;;;;;;;;;;5061988;28;19937;-80
2023/12/20 08:48:36;;;;;;;;;;;;;;;;;;5063054;28;19925;-79
2023/12/20 08:51:03;;;;;;;;;;;;;;;;;;5047834;28;20393;-79
2023/12/20 08:53:29;;;;;;;;;;;;;;;;;;5066213;28;19928;-78
2023/12/20 08:55:58;;;;;;;;;;;;;;;;;;5060401;28;19982;-80
2023/12/20 08:58:24;;;;;;;;;;;;;;;;;;5062689;28;20293;-80
2023/12/20 09:00:50;;;;;;;;;;;;;;;;;;5071184;28;19947;-77
2023/12/20 09:03:17;;;;;;;;;;;;;;;;;;5070440;28;19946;-80
2023/12/20 09:05:43;;;;;;;;;;;;;;;;;;5060798;28;19925;-81
2023/12/20 09:08:10;;;;;;;;;;;;;;;;;;5074424;28;20351;-78
2023/12/20 09:10:36;;;;;;;;;;;;;;;;;;5061536;28;19928;-79
2023/12/20 09:13:03;;;;;;;;;;;;;;;;;;5066257;28;19924;-80
2023/12/20 09:15:30;;;;;;;;;;;;;;;;;;5062219;28;19924;-79
2023/12/20 09:17:59;;;;;;;;;;;;;;;;;;5074145;28;19982;-79
2023/12/20 09:20:27;;;;;;;;;;;;;;;;;;5068421;28;19929;-78
2023/12/20 09:22:53;;;;;;;;;;;;;;;;;;5069634;28;19925;-79
2023/12/20 09:25:20;;;;;;;;;;;;;;;;;;5073018;28;20718;-80
2023/12/20 09:27:46;;;;;;;;;;;;;;;;;;5069759;28;19929;-80
2023/12/20 09:30:13;;;;;;;;;;;;;;;;;;5055799;28;19932;-80
2023/12/20 09:32:51;;;;;;;;;;;;;;;;;;5066329;28;20282;-79
2023/12/20 09:35:17;;;;;;;;;;;;;;;;;;5068172;28;19924;-76
2023/12/20 09:37:44;;;;;;;;;;;;;;;;;;5062399;28;19935;-81
2023/12/20 09:40:11;;;;;;;;;;;;;;;;;;5071298;28;19924;-80
2023/12/20 09:42:38;;;;;;;;;;;;;;;;;;5074244;28;19924;-79
2023/12/20 09:45:04;;;;;;;;;;;;;;;;;;5075384;28;19951;-78
2023/12/20 09:47:30;;;;;;;;;;;;;;;;;;5074046;28;19928;-80
2023/12/20 09:49:57;;;;;;;;;;;;;;;;;;5063675;28;20340;-80
2023/12/20 09:52:23;;;;;;;;;;;;;;;;;;5055604;28;20468;-78
2023/12/20 09:54:50;;;;;;;;;;;;;;;;;;5068442;28;20027;-79
2023/12/20 09:57:16;;;;;;;;;;;;;;;;;;5063301;28;20011;-76
2023/12/20 09:59:43;;;;;;;;;;;;;;;;;;5063857;28;19978;-77
2023/12/20 10:02:10;;;;;;;;;;;;;;;;;;5062914;28;19925;-78
2023/12/20 10:04:39;;;;;;;;;;;;;;;;;;5064568;28;19936;-78
2023/12/20 10:07:05;;;;;;;;;;;;;;;;;;5048742;28;19968;-76
2023/12/20 10:09:32;;;;;;;;;;;;;;;;;;5053192;28;20020;-77
2023/12/20 10:11:59;;;;;;;;;;;;;;;;;;5066113;28;19928;-81
2023/12/20 10:14:25;;;;;;;;;;;;;;;;;;5065137;28;20340;-80
2023/12/20 10:16:53;;;;;;;;;;;;;;;;;;5048746;28;20443;-77
2023/12/20 10:19:19;;;;;;;;;;;;;;;;;;5070974;28;19924;-76
2023/12/20 10:21:46;;;;;;;;;;;;;;;;;;5074156;28;19924;-77
2023/12/20 10:24:13;;;;;;;;;;;;;;;;;;5069343;28;20003;-78
2023/12/20 10:26:39;;;;;;;;;;;;;;;;;;5070158;28;20384;-78
2023/12/20 10:29:06;;;;;;;;;;;;;;;;;;5066332;28;19935;-78
2023/12/20 10:31:32;;;;;;;;;;;;;;;;;;5066844;28;19924;-77
2023/12/20 10:33:59;;;;;;;;;;;;;;;;;;5069849;28;20023;-77
2023/12/20 10:36:26;;;;;;;;;;;;;;;;;;5064422;28;19925;-79
2023/12/20 10:38:53;;;;;;;;;;;;;;;;;;5067372;28;19929;-76
2023/12/20 10:41:19;;;;;;;;;;;;;;;;;;5073906;28;20891;-76
2023/12/20 10:43:45;;;;;;;;;;;;;;;;;;5078603;28;19925;-76
2023/12/20 10:46:12;;;;;;;;;;;;;;;;;;5081362;28;20011;-78
2023/12/20 10:48:39;;;;;;;;;;;;;;;;;;5076839;28;19954;-78
2023/12/20 10:51:05;;;;;;;;;;;;;;;;;;5072519;28;19929;-78
2023/12/20 10:53:32;;;;;;;;;;;;;;;;;;5072176;28;19924;-76
2023/12/20 10:55:58;;;;;;;;;;;;;;;;;;5071798;28;19932;-78
2023/12/20 10:58:25;;;;;;;;;;;;;;;;;;5059480;28;19932;-77
2023/12/20 11:00:51;;;;;;;;;;;;;;;;;;5056647;28;19975;-78
2023/12/20 11:03:18;;;;;;;;;;;;;;;;;;5068668;28;19935;-77
2023/12/20 11:05:44;;;;;;;;;;;;;;;;;;5068830;28;19932;-77
2023/12/20 11:08:12;;;;;;;;;;;;;;;;;;5059899;28;19925;-78
2023/12/20 11:10:38;;;;;;;;;;;;;;;;;;5064219;28;20023;-76
2023/12/20 11:13:05;;;;;;;;;;;;;;;;;;5076249;28;20298;-75
2023/12/20 11:15:33;;;;;;;;;;;;;;;;;;5063428;28;19929;-76
2023/12/20 11:17:59;;;;;;;;;;;;;;;;;;5065391;28;19947;-78
2023/12/20 11:20:25;;;;;;;;;;;;;;;;;;5060772;28;19943;-76
2023/12/20 11:22:52;;;;;;;;;;;;;;;;;;5074438;28;19935;-77
2023/12/20 11:25:18;;;;;;;;;;;;;;;;;;5079604;28;19935;-77
2023/12/20 11:27:45;;;;;;;;;;;;;;;;;;5068344;28;20273;-76
2023/12/20 11:30:14;;;;;;;;;;;;;;;;;;5078739;28;19924;-76
2023/12/20 11:32:40;;;;;;;;;;;;;;;;;;5069511;28;19954;-77
2023/12/20 11:35:06;;;;;;;;;;;;;;;;;;5077425;28;19958;-77
2023/12/20 11:37:33;;;;;;;;;;;;;;;;;;5067406;28;19953;-77
2023/12/20 11:39:59;;;;;;;;;;;;;;;;;;5062958;28;19924;-77
2023/12/20 11:42:26;;;;;;;;;;;;;;;;;;5071711;28;20384;-76
2023/12/20 11:44:52;;;;;;;;;;;;;;;;;;5074173;28;20377;-75
2023/12/20 11:47:19;;;;;;;;;;;;;;;;;;5072393;28;19928;-78
2023/12/20 11:49:46;;;;;;;;;;;;;;;;;;5070284;28;19925;-76
2023/12/20 11:52:13;;;;;;;;;;;;;;;;;;5073374;28;19978;-75
2023/12/20 11:54:39;;;;;;;;;;;;;;;;;;5075766;28;19925;-79
2023/12/20 11:57:06;;;;;;;;;;;;;;;;;;5070181;28;19925;-76
2023/12/20 11:59:32;;;;;;;;;;;;;;;;;;5067924;28;19925;-78
2023/12/20 12:02:00;;;;;;;;;;;;;;;;;;5074044;28;19932;-78
2023/12/20 12:04:28;;;;;;;;;;;;;;;;;;5080020;28;19925;-78
2023/12/20 12:06:54;;;;;;;;;;;;;;;;;;5074962;28;19924;-79
2023/12/20 12:09:21;;;;;;;;;;;;;;;;;;5048779;28;20007;-77
2023/12/20 12:11:47;;;;;;;;;;;;;;;;;;5071020;28;19924;-75
2023/12/20 12:14:14;;;;;;;;;;;;;;;;;;5078373;28;19932;-76
2023/12/20 12:16:43;;;;;;;;;;;;;;;;;;5068841;28;19996;-76
2023/12/20 12:19:09;;;;;;;;;;;;;;;;;;5072369;28;19932;-75
2023/12/20 12:21:36;;;;;;;;;;;;;;;;;;5059823;28;19925;-77
2023/12/20 12:24:02;;;;;;;;;;;;;;;;;;5073244;28;19924;-77
2023/12/20 12:26:29;;;;;;;;;;;;;;;;;;5084868;28;19935;-77
2023/12/20 12:28:55;;;;;;;;;;;;;;;;;;5067088;28;19929;-77
2023/12/20 12:31:22;;;;;;;;;;;;;;;;;;5075676;28;19932;-78
2023/12/20 12:33:49;;;;;;;;;;;;;;;;;;5069839;28;19951;-76
2023/12/20 12:36:17;;;;;;;;;;;;;;;;;;5063151;28;19934;-77
2023/12/20 12:38:44;;;;;;;;;;;;;;;;;;5048861;28;19925;-76
2023/12/20 12:41:10;;;;;;;;;;;;;;;;;;5064631;28;19925;-75
2023/12/20 12:43:37;;;;;;;;;;;;;;;;;;5062498;28;19970;-76
2023/12/20 12:46:03;;;;;;;;;;;;;;;;;;5067116;28;19975;-77
2023/12/20 12:48:30;;;;;;;;;;;;;;;;;;5042800;28;19978;-77
2023/12/20 12:50:59;;;;;;;;;;;;;;;;;;5066224;28;19956;-76
2023/12/20 12:53:26;;;;;;;;;;;;;;;;;;5070049;28;19932;-76
2023/12/20 12:55:53;;;;;;;;;;;;;;;;;;5067978;28;19929;-75
2023/12/20 12:58:20;;;;;;;;;;;;;;;;;;5072192;28;19924;-74
2023/12/20 13:00:46;;;;;;;;;;;;;;;;;;5065951;28;19979;-76
2023/12/20 13:03:13;;;;;;;;;;;;;;;;;;5070152;28;19967;-77
2023/12/20 13:05:39;;;;;;;;;;;;;;;;;;5060575;28;19962;-74
2023/12/20 13:08:09;;;;;;;;;;;;;;;;;;5072742;28;19929;-76
2023/12/20 13:10:35;;;;;;;;;;;;;;;;;;5066860;28;19924;-76
2023/12/20 13:13:02;;;;;;;;;;;;;;;;;;5070648;28;20027;-77
2023/12/20 13:15:28;;;;;;;;;;;;;;;;;;5072967;28;19928;-75
2023/12/20 13:17:55;;;;;;;;;;;;;;;;;;5062159;28;20023;-76
2023/12/20 13:20:22;;;;;;;;;;;;;;;;;;5071655;28;19956;-77
2023/12/20 13:22:48;;;;;;;;;;;;;;;;;;5074291;28;20055;-76
2023/12/20 13:25:14;;;;;;;;;;;;;;;;;;5076138;28;19960;-79
2023/12/20 13:27:41;;;;;;;;;;;;;;;;;;5083509;28;19925;-74
2023/12/20 13:30:08;;;;;;;;;;;;;;;;;;5090714;28;19928;-78
2023/12/20 13:32:34;;;;;;;;;;;;;;;;;;5059988;28;20016;-76
2023/12/20 13:35:01;;;;;;;;;;;;;;;;;;5076189;28;19932;-77
2023/12/20 13:37:27;;;;;;;;;;;;;;;;;;5075912;28;19924;-77
2023/12/20 13:39:54;;;;;;;;;;;;;;;;;;5074935;28;20261;-76
2023/12/20 13:42:20;;;;;;;;;;;;;;;;;;5052104;28;19936;-75
2023/12/20 13:44:47;;;;;;;;;;;;;;;;;;5062754;28;19924;-77
2023/12/20 13:47:13;;;;;;;;;;;;;;;;;;5069143;28;19929;-76
2023/12/20 13:49:39;;;;;;;;;;;;;;;;;;5067506;28;19924;-74
2023/12/20 13:52:06;;;;;;;;;;;;;;;;;;5071058;28;20389;-81
2023/12/20 13:54:32;;;;;;;;;;;;;;;;;;5073529;28;19932;-77
2023/12/20 13:56:59;;;;;;;;;;;;;;;;;;5073144;28;19936;-76
2023/12/20 13:59:35;;;;;;;;;;;;;;;;;;5071450;28;19925;-78
2023/12/20 14:02:03;;;;;;;;;;;;;;;;;;5059895;28;20397;-78
2023/12/20 14:04:31;;;;;;;;;;;;;;;;;;5067633;28;19925;-77
2023/12/20 14:07:07;;;;;;;;;;;;;;;;;;5066126;28;19924;-79
2023/12/20 14:09:34;;;;;;;;;;;;;;;;;;5062540;28;19935;-77
2023/12/20 14:12:00;;;;;;;;;;;;;;;;;;5051426;28;19929;-75
2023/12/20 14:14:27;;;;;;;;;;;;;;;;;;5060906;28;19925;-76
2023/12/20 14:16:53;;;;;;;;;;;;;;;;;;5054795;28;19931;-78
2023/12/20 14:19:19;;;;;;;;;;;;;;;;;;5064118;28;19964;-75
2023/12/20 14:21:46;;;;;;;;;;;;;;;;;;5064339;28;19925;-76
2023/12/20 14:24:14;;;;;;;;;;;;;;;;;;5058057;28;20369;-75
2023/12/20 14:26:40;;;;;;;;;;;;;;;;;;5066033;28;20099;-77
2023/12/20 14:29:10;;;;;;;;;;;;;;;;;;5065389;28;19976;-77
2023/12/20 14:31:38;;;;;;;;;;;;;;;;;;5059938;28;20031;-75
2023/12/20 14:34:05;;;;;;;;;;;;;;;;;;5063953;28;20385;-77
2023/12/20 14:36:31;;;;;;;;;;;;;;;;;;5067186;28;19925;-77
2023/12/20 14:38:58;;;;;;;;;;;;;;;;;;5066173;28;20340;-76
2023/12/20 14:41:24;;;;;;;;;;;;;;;;;;5063420;28;19928;-76
2023/12/20 14:43:54;;;;;;;;;;;;;;;;;;5061690;28;19929;-77
2023/12/20 14:46:20;;;;;;;;;;;;;;;;;;5057883;28;19925;-79
2023/12/20 14:48:48;;;;;;;;;;;;;;;;;;5057522;28;19925;-75
2023/12/20 14:51:15;;;;;;;;;;;;;;;;;;5060287;28;20023;-76
2023/12/20 14:53:42;;;;;;;;;;;;;;;;;;5078997;28;19931;-76
2023/12/20 14:56:08;;;;;;;;;;;;;;;;;;5052332;28;19928;-76
2023/12/20 14:58:36;;;;;;;;;;;;;;;;;;5071721;28;19947;-76
2023/12/20 15:01:03;;;;;;;;;;;;;;;;;;5068561;28;19925;-75
2023/12/20 15:03:30;;;;;;;;;;;;;;;;;;5074611;28;20369;-76
2023/12/20 15:05:58;;;;;;;;;;;;;;;;;;5058412;28;19928;-76
2023/12/20 15:08:25;;;;;;;;;;;;;;;;;;5071849;28;20016;-77
2023/12/20 15:10:51;;;;;;;;;;;;;;;;;;5070406;28;19980;-77
2023/12/20 15:13:18;;;;;;;;;;;;;;;;;;5075204;28;19931;-76
2023/12/20 15:15:44;;;;;;;;;;;;;;;;;;5058956;28;19940;-77
2023/12/20 15:18:13;;;;;;;;;;;;;;;;;;5074275;28;19925;-77
2023/12/20 15:20:40;;;;;;;;;;;;;;;;;;5068215;28;19954;-76
2023/12/20 15:23:07;;;;;;;;;;;;;;;;;;5066080;28;19924;-78
2023/12/20 15:25:34;;;;;;;;;;;;;;;;;;5073526;28;19971;-77
2023/12/20 15:28:02;;;;;;;;;;;;;;;;;;5068343;28;19925;-76
2023/12/20 15:30:29;;;;;;;;;;;;;;;;;;5057312;28;19931;-75
2023/12/20 15:32:56;;;;;;;;;;;;;;;;;;5065185;28;19947;-77
2023/12/20 15:35:23;;;;;;;;;;;;;;;;;;5064070;28;19933;-76
2023/12/20 15:37:50;;;;;;;;;;;;;;;;;;5073681;28;19994;-78
2023/12/20 15:40:17;;;;;;;;;;;;;;;;;;5064782;28;20007;-75
2023/12/20 15:42:44;;;;;;;;;;;;;;;;;;5050193;28;19925;-77
2023/12/20 15:45:11;;;;;;;;;;;;;;;;;;5068487;28;19928;-76
2023/12/20 15:47:37;;;;;;;;;;;;;;;;;;5061759;28;19974;-76
2023/12/20 15:50:04;;;;;;;;;;;;;;;;;;5067590;28;19932;-77
2023/12/20 15:52:30;;;;;;;;;;;;;;;;;;5062805;28;19929;-77
2023/12/20 15:54:57;;;;;;;;;;;;;;;;;;5065013;28;19925;-77
2023/12/20 15:57:24;;;;;;;;;;;;;;;;;;5068233;28;20388;-78
2023/12/20 15:59:50;;;;;;;;;;;;;;;;;;5064757;28;19964;-76
2023/12/20 16:02:17;;;;;;;;;;;;;;;;;;5065677;28;19925;-77
2023/12/20 16:04:44;;;;;;;;;;;;;;;;;;5071214;28;19986;-77
2023/12/20 16:07:10;;;;;;;;;;;;;;;;;;5059985;28;20019;-77
2023/12/20 16:09:37;;;;;;;;;;;;;;;;;;5058213;28;19924;-77
2023/12/20 16:12:03;;;;;;;;;;;;;;;;;;5067898;28;20343;-77
2023/12/20 16:14:29;;;;;;;;;;;;;;;;;;5067224;28;20002;-78
2023/12/20 16:16:56;;;;;;;;;;;;;;;;;;5063350;28;19924;-76
2023/12/20 16:19:22;;;;;;;;;;;;;;;;;;5070368;28;19939;-78
2023/12/20 16:21:49;;;;;;;;;;;;;;;;;;5070978;28;19964;-79
2023/12/20 16:24:16;;;;;;;;;;;;;;;;;;5069827;28;19929;-76
2023/12/20 16:26:42;;;;;;;;;;;;;;;;;;5065005;28;20027;-76
2023/12/20 16:29:10;;;;;;;;;;;;;;;;;;5070535;28;20392;-76
2023/12/20 16:31:36;;;;;;;;;;;;;;;;;;5067698;28;20023;-77
2023/12/20 16:34:02;;;;;;;;;;;;;;;;;;5058554;28;19932;-78
2023/12/20 16:36:32;;;;;;;;;;;;;;;;;;5070019;28;19932;-78
2023/12/20 16:38:59;;;;;;;;;;;;;;;;;;5071550;28;20007;-77
2023/12/20 16:41:25;;;;;;;;;;;;;;;;;;5053313;28;19925;-77